Fort Davis, TX

9:20 AM CST on February 07, 2016 (GMT -0600)
3 Dog Ranch | | Change Station
CLOSE
Current Station
Personal Weather Station
Location: Fort Davis, TX
Elevation: 5274 ft
Nearby Weather Stations

Elev 5274 ft 30.61 °N, 103.97 °W | Updated 1 second ago

Mostly Cloudy
Mostly Cloudy
53.2 °F
Feels Like 53.2 °F
N
0.0
Wind Variable Wind from North
Gusts 0.0 mph

Today
High -- | Low -- °F
--% Chance of Precip.
Yesterday
High -- | Low -- °F
Precip. -- in
Pressure 30.32 in
Visibility 10.0 miles
Clouds Clear
Dew Point 11 °F
Humidity 18%
Rainfall 0.00 in
Snow Depth Not available.
7:43 AM 6:36 PM
Waning Crescent, 1% visible
METAR KMRF 071456Z AUTO 12004KT 10SM CLR 01/M13 A3029 RMK AO2 SLP265 T00111128 50002 FZRANO
Pressure 30.32 in
Visibility 10.0 miles
Clouds Clear
Dew Point 11 °F
Humidity 18%
Rainfall 0.00 in
Snow Depth Not available.
7:43 AM 6:36 PM
Waning Crescent, 1% visible
METAR KMRF 071456Z AUTO 12004KT 10SM CLR 01/M13 A3029 RMK AO2 SLP265 T00111128 50002 FZRANO

10-Day Weather Forecast

Almanac

Astronomy

Feb. 07, 2016 Rise Set
Actual Time
Civil Twilight
Nautical Twilight
Astronomical Twilight
Moon
Length of Visible Light
Length of Day
Tomorrow will be .
, % of the Moon is Illuminated

Today's Extremes

State Highs State Lows

Community

WunderPhotos

Upload Photos

1,891,214 photos uploaded!

WunderBlog® & News

Nearby

Air Quality

  Air Quality AQ Index Pollutant
Not available.

Snow Depth

Station Depth Elevation

Earthquake Activity

City Distance Mag. Time & Date
Minimum magnitude displayed is 2.5.

Coastal Water Temperatures

Place Temperature

Stations

Nearby Weather Stations

Station Location Temp. Windchill Dew Point Humidity Wind Precip. Elev Updated Type
                   

Watches & Warnings

There are currently no watches in effect.